sensor_id;sensor_type;location;lat;lon;timestamp;P1;P2;P0
60816;PMS5003;51921;51.518;-3.188;2023-04-24T00:02:06;22;19;
60816;PMS5003;51921;51.518;-3.188;2023-04-24T00:04:32;18;17;
60816;PMS5003;51921;51.518;-3.188;2023-04-24T00:06:57;17;16;
60816;PMS5003;51921;51.518;-3.188;2023-04-24T00:09:23;17;17;
60816;PMS5003;51921;51.518;-3.188;2023-04-24T00:11:48;20;20;
60816;PMS5003;51921;51.518;-3.188;2023-04-24T00:14:15;20;19;
60816;PMS5003;51921;51.518;-3.188;2023-04-24T00:16:40;19;17;
60816;PMS5003;51921;51.518;-3.188;2023-04-24T00:19:05;18;18;
60816;PMS5003;51921;51.518;-3.188;2023-04-24T00:21:31;16;16;
60816;PMS5003;51921;51.518;-3.188;2023-04-24T00:23:56;16;15;
60816;PMS5003;51921;51.518;-3.188;2023-04-24T00:26:21;18;17;
60816;PMS5003;51921;51.518;-3.188;2023-04-24T00:28:47;17;17;
60816;PMS5003;51921;51.518;-3.188;2023-04-24T00:31:13;18;16;
60816;PMS5003;51921;51.518;-3.188;2023-04-24T00:33:38;18;17;
60816;PMS5003;51921;51.518;-3.188;2023-04-24T00:36:03;16;16;
60816;PMS5003;51921;51.518;-3.188;2023-04-24T00:38:28;13;13;
60816;PMS5003;51921;51.518;-3.188;2023-04-24T00:40:54;18;17;
60816;PMS5003;51921;51.518;-3.188;2023-04-24T00:43:19;22;20;
60816;PMS5003;51921;51.518;-3.188;2023-04-24T00:45:45;17;16;
60816;PMS5003;51921;51.518;-3.188;2023-04-24T00:48:10;14;14;
60816;PMS5003;51921;51.518;-3.188;2023-04-24T00:50:36;14;13;
60816;PMS5003;51921;51.518;-3.188;2023-04-24T00:53:01;18;18;
60816;PMS5003;51921;51.518;-3.188;2023-04-24T00:55:27;18;17;
60816;PMS5003;51921;51.518;-3.188;2023-04-24T00:57:52;19;17;
60816;PMS5003;51921;51.518;-3.188;2023-04-24T01:00:17;14;13;
60816;PMS5003;51921;51.518;-3.188;2023-04-24T01:02:43;16;16;
60816;PMS5003;51921;51.518;-3.188;2023-04-24T01:05:08;16;15;
60816;PMS5003;51921;51.518;-3.188;2023-04-24T01:07:34;16;15;
60816;PMS5003;51921;51.518;-3.188;2023-04-24T01:09:59;18;16;
60816;PMS5003;51921;51.518;-3.188;2023-04-24T01:12:24;14;14;
60816;PMS5003;51921;51.518;-3.188;2023-04-24T01:14:49;16;15;
60816;PMS5003;51921;51.518;-3.188;2023-04-24T01:17:15;17;17;
60816;PMS5003;51921;51.518;-3.188;2023-04-24T01:19:41;17;17;
60816;PMS5003;51921;51.518;-3.188;2023-04-24T01:22:08;15;14;
60816;PMS5003;51921;51.518;-3.188;2023-04-24T01:24:32;21;19;
60816;PMS5003;51921;51.518;-3.188;2023-04-24T01:26:58;18;17;
60816;PMS5003;51921;51.518;-3.188;2023-04-24T01:29:23;20;19;
60816;PMS5003;51921;51.518;-3.188;2023-04-24T01:31:48;21;21;
60816;PMS5003;51921;51.518;-3.188;2023-04-24T01:34:14;21;19;
60816;PMS5003;51921;51.518;-3.188;2023-04-24T01:36:39;19;18;
60816;PMS5003;51921;51.518;-3.188;2023-04-24T01:39:04;19;19;
60816;PMS5003;51921;51.518;-3.188;2023-04-24T01:41:30;22;20;
60816;PMS5003;51921;51.518;-3.188;2023-04-24T01:43:55;20;19;
60816;PMS5003;51921;51.518;-3.188;2023-04-24T01:46:21;20;20;
60816;PMS5003;51921;51.518;-3.188;2023-04-24T01:48:47;19;18;
60816;PMS5003;51921;51.518;-3.188;2023-04-24T01:51:12;17;17;
60816;PMS5003;51921;51.518;-3.188;2023-04-24T01:53:38;19;18;
60816;PMS5003;51921;51.518;-3.188;2023-04-24T01:56:03;18;16;
60816;PMS5003;51921;51.518;-3.188;2023-04-24T01:58:29;16;16;
60816;PMS5003;51921;51.518;-3.188;2023-04-24T02:00:55;17;17;
60816;PMS5003;51921;51.518;-3.188;2023-04-24T02:03:20;18;18;
60816;PMS5003;51921;51.518;-3.188;2023-04-24T02:05:46;20;18;
60816;PMS5003;51921;51.518;-3.188;2023-04-24T02:08:11;18;17;
60816;PMS5003;51921;51.518;-3.188;2023-04-24T02:10:37;21;20;
60816;PMS5003;51921;51.518;-3.188;2023-04-24T02:13:03;22;20;
60816;PMS5003;51921;51.518;-3.188;2023-04-24T02:15:28;21;20;
60816;PMS5003;51921;51.518;-3.188;2023-04-24T02:17:53;21;21;
60816;PMS5003;51921;51.518;-3.188;2023-04-24T02:20:18;20;19;
60816;PMS5003;51921;51.518;-3.188;2023-04-24T02:22:44;22;20;
60816;PMS5003;51921;51.518;-3.188;2023-04-24T02:25:09;23;22;
60816;PMS5003;51921;51.518;-3.188;2023-04-24T02:27:34;24;22;
60816;PMS5003;51921;51.518;-3.188;2023-04-24T02:30:00;29;27;
60816;PMS5003;51921;51.518;-3.188;2023-04-24T02:32:26;25;23;
60816;PMS5003;51921;51.518;-3.188;2023-04-24T02:34:51;24;23;
60816;PMS5003;51921;51.518;-3.188;2023-04-24T02:37:16;29;27;
60816;PMS5003;51921;51.518;-3.188;2023-04-24T02:39:42;26;24;
60816;PMS5003;51921;51.518;-3.188;2023-04-24T02:42:08;24;21;
60816;PMS5003;51921;51.518;-3.188;2023-04-24T02:44:33;23;22;
60816;PMS5003;51921;51.518;-3.188;2023-04-24T02:46:58;23;23;
60816;PMS5003;51921;51.518;-3.188;2023-04-24T02:49:24;26;24;
60816;PMS5003;51921;51.518;-3.188;2023-04-24T02:51:50;28;26;
60816;PMS5003;51921;51.518;-3.188;2023-04-24T02:54:15;26;24;
60816;PMS5003;51921;51.518;-3.188;2023-04-24T02:56:40;27;27;
60816;PMS5003;51921;51.518;-3.188;2023-04-24T02:59:05;25;24;
60816;PMS5003;51921;51.518;-3.188;2023-04-24T03:01:31;29;26;
60816;PMS5003;51921;51.518;-3.188;2023-04-24T03:03:56;22;21;
60816;PMS5003;51921;51.518;-3.188;2023-04-24T03:06:21;24;23;
60816;PMS5003;51921;51.518;-3.188;2023-04-24T03:08:47;26;24;
60816;PMS5003;51921;51.518;-3.188;2023-04-24T03:11:12;23;22;
60816;PMS5003;51921;51.518;-3.188;2023-04-24T03:13:38;28;26;
60816;PMS5003;51921;51.518;-3.188;2023-04-24T03:16:04;28;27;
60816;PMS5003;51921;51.518;-3.188;2023-04-24T03:18:29;22;21;
60816;PMS5003;51921;51.518;-3.188;2023-04-24T03:20:54;22;22;
60816;PMS5003;51921;51.518;-3.188;2023-04-24T03:23:19;22;21;
60816;PMS5003;51921;51.518;-3.188;2023-04-24T03:25:45;22;21;
60816;PMS5003;51921;51.518;-3.188;2023-04-24T03:28:10;21;20;
60816;PMS5003;51921;51.518;-3.188;2023-04-24T03:30:36;26;23;
60816;PMS5003;51921;51.518;-3.188;2023-04-24T03:33:02;19;19;
60816;PMS5003;51921;51.518;-3.188;2023-04-24T03:35:27;21;20;
60816;PMS5003;51921;51.518;-3.188;2023-04-24T03:37:53;24;24;
60816;PMS5003;51921;51.518;-3.188;2023-04-24T03:40:18;21;20;
60816;PMS5003;51921;51.518;-3.188;2023-04-24T03:42:44;19;19;
60816;PMS5003;51921;51.518;-3.188;2023-04-24T03:45:09;24;23;
60816;PMS5003;51921;51.518;-3.188;2023-04-24T03:47:35;21;20;
60816;PMS5003;51921;51.518;-3.188;2023-04-24T03:50:00;22;21;
60816;PMS5003;51921;51.518;-3.188;2023-04-24T03:52:26;26;24;
60816;PMS5003;51921;51.518;-3.188;2023-04-24T03:54:51;28;27;
60816;PMS5003;51921;51.518;-3.188;2023-04-24T03:57:16;23;23;
60816;PMS5003;51921;51.518;-3.188;2023-04-24T03:59:42;20;20;
60816;PMS5003;51921;51.518;-3.188;2023-04-24T04:02:08;24;23;
60816;PMS5003;51921;51.518;-3.188;2023-04-24T04:04:33;22;20;
60816;PMS5003;51921;51.518;-3.188;2023-04-24T04:06:58;19;18;
60816;PMS5003;51921;51.518;-3.188;2023-04-24T04:09:24;20;20;
60816;PMS5003;51921;51.518;-3.188;2023-04-24T04:11:49;18;17;
60816;PMS5003;51921;51.518;-3.188;2023-04-24T04:14:15;21;21;
60816;PMS5003;51921;51.518;-3.188;2023-04-24T04:16:40;22;21;
60816;PMS5003;51921;51.518;-3.188;2023-04-24T04:19:05;27;24;
60816;PMS5003;51921;51.518;-3.188;2023-04-24T04:21:31;23;22;
60816;PMS5003;51921;51.518;-3.188;2023-04-24T04:23:57;22;21;
60816;PMS5003;51921;51.518;-3.188;2023-04-24T04:26:22;22;21;
60816;PMS5003;51921;51.518;-3.188;2023-04-24T04:28:47;24;23;
60816;PMS5003;51921;51.518;-3.188;2023-04-24T04:31:12;24;24;
60816;PMS5003;51921;51.518;-3.188;2023-04-24T04:33:37;25;24;
60816;PMS5003;51921;51.518;-3.188;2023-04-24T04:36:03;29;26;
60816;PMS5003;51921;51.518;-3.188;2023-04-24T04:38:29;25;23;
60816;PMS5003;51921;51.518;-3.188;2023-04-24T04:40:54;22;21;
60816;PMS5003;51921;51.518;-3.188;2023-04-24T04:43:19;26;25;
60816;PMS5003;51921;51.518;-3.188;2023-04-24T04:45:45;32;30;
60816;PMS5003;51921;51.518;-3.188;2023-04-24T04:48:10;26;24;
60816;PMS5003;51921;51.518;-3.188;2023-04-24T04:50:36;29;27;
60816;PMS5003;51921;51.518;-3.188;2023-04-24T04:53:01;28;27;
60816;PMS5003;51921;51.518;-3.188;2023-04-24T04:55:26;23;23;
60816;PMS5003;51921;51.518;-3.188;2023-04-24T04:57:51;28;27;
60816;PMS5003;51921;51.518;-3.188;2023-04-24T05:00:17;30;30;
60816;PMS5003;51921;51.518;-3.188;2023-04-24T05:02:42;31;29;
60816;PMS5003;51921;51.518;-3.188;2023-04-24T05:05:08;25;24;
60816;PMS5003;51921;51.518;-3.188;2023-04-24T05:07:33;30;29;
60816;PMS5003;51921;51.518;-3.188;2023-04-24T05:09:58;26;26;
60816;PMS5003;51921;51.518;-3.188;2023-04-24T05:12:23;27;25;
60816;PMS5003;51921;51.518;-3.188;2023-04-24T05:14:48;32;31;
60816;PMS5003;51921;51.518;-3.188;2023-04-24T05:17:14;25;25;
60816;PMS5003;51921;51.518;-3.188;2023-04-24T05:19:39;31;28;
60816;PMS5003;51921;51.518;-3.188;2023-04-24T05:22:04;29;27;
60816;PMS5003;51921;51.518;-3.188;2023-04-24T05:24:30;29;28;
60816;PMS5003;51921;51.518;-3.188;2023-04-24T05:26:55;26;26;
60816;PMS5003;51921;51.518;-3.188;2023-04-24T05:29:21;28;27;
60816;PMS5003;51921;51.518;-3.188;2023-04-24T05:31:46;27;26;
60816;PMS5003;51921;51.518;-3.188;2023-04-24T05:34:12;24;23;
60816;PMS5003;51921;51.518;-3.188;2023-04-24T05:36:38;21;21;
60816;PMS5003;51921;51.518;-3.188;2023-04-24T05:39:03;26;24;
60816;PMS5003;51921;51.518;-3.188;2023-04-24T05:41:28;26;25;
60816;PMS5003;51921;51.518;-3.188;2023-04-24T05:43:54;26;24;
60816;PMS5003;51921;51.518;-3.188;2023-04-24T05:46:19;24;24;
60816;PMS5003;51921;51.518;-3.188;2023-04-24T05:48:45;26;24;
60816;PMS5003;51921;51.518;-3.188;2023-04-24T05:51:10;30;26;
60816;PMS5003;51921;51.518;-3.188;2023-04-24T05:53:35;25;25;
60816;PMS5003;51921;51.518;-3.188;2023-04-24T05:56:00;19;19;
60816;PMS5003;51921;51.518;-3.188;2023-04-24T05:58:26;26;26;
60816;PMS5003;51921;51.518;-3.188;2023-04-24T06:00:51;20;19;
60816;PMS5003;51921;51.518;-3.188;2023-04-24T06:03:16;28;27;
60816;PMS5003;51921;51.518;-3.188;2023-04-24T06:05:41;28;27;
60816;PMS5003;51921;51.518;-3.188;2023-04-24T06:08:07;31;27;
60816;PMS5003;51921;51.518;-3.188;2023-04-24T06:10:32;24;23;
60816;PMS5003;51921;51.518;-3.188;2023-04-24T06:12:58;28;27;
60816;PMS5003;51921;51.518;-3.188;2023-04-24T06:15:23;23;23;
60816;PMS5003;51921;51.518;-3.188;2023-04-24T06:17:49;26;26;
60816;PMS5003;51921;51.518;-3.188;2023-04-24T06:20:14;28;27;
60816;PMS5003;51921;51.518;-3.188;2023-04-24T06:22:39;26;25;
60816;PMS5003;51921;51.518;-3.188;2023-04-24T06:25:05;26;26;
60816;PMS5003;51921;51.518;-3.188;2023-04-24T06:27:30;23;23;
60816;PMS5003;51921;51.518;-3.188;2023-04-24T06:29:55;25;25;
60816;PMS5003;51921;51.518;-3.188;2023-04-24T06:32:21;30;28;
60816;PMS5003;51921;51.518;-3.188;2023-04-24T06:34:46;26;25;
60816;PMS5003;51921;51.518;-3.188;2023-04-24T06:37:12;28;23;
60816;PMS5003;51921;51.518;-3.188;2023-04-24T06:39:38;26;25;
60816;PMS5003;51921;51.518;-3.188;2023-04-24T06:42:03;28;27;
60816;PMS5003;51921;51.518;-3.188;2023-04-24T06:44:29;23;23;
60816;PMS5003;51921;51.518;-3.188;2023-04-24T06:46:54;33;31;
60816;PMS5003;51921;51.518;-3.188;2023-04-24T06:49:19;27;27;
60816;PMS5003;51921;51.518;-3.188;2023-04-24T06:51:45;28;26;
60816;PMS5003;51921;51.518;-3.188;2023-04-24T06:54:10;25;25;
60816;PMS5003;51921;51.518;-3.188;2023-04-24T06:56:35;23;22;
60816;PMS5003;51921;51.518;-3.188;2023-04-24T06:59:00;26;26;
60816;PMS5003;51921;51.518;-3.188;2023-04-24T07:01:26;27;25;
60816;PMS5003;51921;51.518;-3.188;2023-04-24T07:03:51;24;23;
60816;PMS5003;51921;51.518;-3.188;2023-04-24T07:06:17;22;22;
60816;PMS5003;51921;51.518;-3.188;2023-04-24T07:08:42;29;26;
60816;PMS5003;51921;51.518;-3.188;2023-04-24T07:11:08;32;31;
60816;PMS5003;51921;51.518;-3.188;2023-04-24T07:13:33;31;30;
60816;PMS5003;51921;51.518;-3.188;2023-04-24T07:15:59;31;27;
60816;PMS5003;51921;51.518;-3.188;2023-04-24T07:18:25;30;28;
60816;PMS5003;51921;51.518;-3.188;2023-04-24T07:20:50;30;30;
60816;PMS5003;51921;51.518;-3.188;2023-04-24T07:23:15;30;30;
60816;PMS5003;51921;51.518;-3.188;2023-04-24T07:25:41;36;32;
60816;PMS5003;51921;51.518;-3.188;2023-04-24T07:28:06;33;32;
60816;PMS5003;51921;51.518;-3.188;2023-04-24T07:30:32;39;36;
60816;PMS5003;51921;51.518;-3.188;2023-04-24T07:32:57;37;35;
60816;PMS5003;51921;51.518;-3.188;2023-04-24T07:35:22;36;33;
60816;PMS5003;51921;51.518;-3.188;2023-04-24T07:37:47;36;34;
60816;PMS5003;51921;51.518;-3.188;2023-04-24T07:40:13;33;33;
60816;PMS5003;51921;51.518;-3.188;2023-04-24T07:42:38;38;35;
60816;PMS5003;51921;51.518;-3.188;2023-04-24T07:45:04;42;38;
60816;PMS5003;51921;51.518;-3.188;2023-04-24T07:47:29;39;35;
60816;PMS5003;51921;51.518;-3.188;2023-04-24T07:49:54;35;33;
60816;PMS5003;51921;51.518;-3.188;2023-04-24T07:52:20;37;35;
60816;PMS5003;51921;51.518;-3.188;2023-04-24T07:54:45;36;36;
60816;PMS5003;51921;51.518;-3.188;2023-04-24T07:57:11;25;25;
60816;PMS5003;51921;51.518;-3.188;2023-04-24T07:59:36;19;18;
60816;PMS5003;51921;51.518;-3.188;2023-04-24T08:02:02;22;19;
60816;PMS5003;51921;51.518;-3.188;2023-04-24T08:04:27;18;18;
60816;PMS5003;51921;51.518;-3.188;2023-04-24T08:06:52;18;18;
60816;PMS5003;51921;51.518;-3.188;2023-04-24T08:09:18;15;14;
60816;PMS5003;51921;51.518;-3.188;2023-04-24T08:11:44;12;12;
60816;PMS5003;51921;51.518;-3.188;2023-04-24T08:14:09;13;13;
60816;PMS5003;51921;51.518;-3.188;2023-04-24T08:16:35;10;9;
60816;PMS5003;51921;51.518;-3.188;2023-04-24T08:19:00;9;9;
60816;PMS5003;51921;51.518;-3.188;2023-04-24T08:21:26;7;7;
60816;PMS5003;51921;51.518;-3.188;2023-04-24T08:23:52;8;8;
60816;PMS5003;51921;51.518;-3.188;2023-04-24T08:26:17;9;9;
60816;PMS5003;51921;51.518;-3.188;2023-04-24T08:28:43;8;8;
60816;PMS5003;51921;51.518;-3.188;2023-04-24T08:31:09;6;6;
60816;PMS5003;51921;51.518;-3.188;2023-04-24T08:33:34;16;16;
60816;PMS5003;51921;51.518;-3.188;2023-04-24T08:36:00;12;12;
60816;PMS5003;51921;51.518;-3.188;2023-04-24T08:38:31;30;29;
60816;PMS5003;51921;51.518;-3.188;2023-04-24T08:40:51;20;19;
60816;PMS5003;51921;51.518;-3.188;2023-04-24T08:43:16;16;13;
60816;PMS5003;51921;51.518;-3.188;2023-04-24T08:45:42;18;16;
60816;PMS5003;51921;51.518;-3.188;2023-04-24T08:48:08;17;16;
60816;PMS5003;51921;51.518;-3.188;2023-04-24T08:50:33;19;16;
60816;PMS5003;51921;51.518;-3.188;2023-04-24T08:52:59;17;17;
60816;PMS5003;51921;51.518;-3.188;2023-04-24T08:55:24;15;14;
60816;PMS5003;51921;51.518;-3.188;2023-04-24T08:57:50;19;17;
60816;PMS5003;51921;51.518;-3.188;2023-04-24T09:00:15;16;16;
60816;PMS5003;51921;51.518;-3.188;2023-04-24T09:02:41;19;18;
60816;PMS5003;51921;51.518;-3.188;2023-04-24T09:05:06;17;16;
60816;PMS5003;51921;51.518;-3.188;2023-04-24T09:07:31;15;15;
60816;PMS5003;51921;51.518;-3.188;2023-04-24T09:09:57;22;21;
60816;PMS5003;51921;51.518;-3.188;2023-04-24T09:12:22;20;19;
60816;PMS5003;51921;51.518;-3.188;2023-04-24T09:14:48;19;17;
60816;PMS5003;51921;51.518;-3.188;2023-04-24T09:17:13;22;21;
60816;PMS5003;51921;51.518;-3.188;2023-04-24T09:19:39;20;20;
60816;PMS5003;51921;51.518;-3.188;2023-04-24T09:22:04;23;21;
60816;PMS5003;51921;51.518;-3.188;2023-04-24T09:24:29;20;19;
60816;PMS5003;51921;51.518;-3.188;2023-04-24T09:26:56;23;23;
60816;PMS5003;51921;51.518;-3.188;2023-04-24T09:29:19;29;28;
60816;PMS5003;51921;51.518;-3.188;2023-04-24T09:31:45;28;25;
60816;PMS5003;51921;51.518;-3.188;2023-04-24T09:34:11;26;26;
60816;PMS5003;51921;51.518;-3.188;2023-04-24T09:36:36;23;22;
60816;PMS5003;51921;51.518;-3.188;2023-04-24T09:39:01;26;25;
60816;PMS5003;51921;51.518;-3.188;2023-04-24T09:41:27;32;31;
60816;PMS5003;51921;51.518;-3.188;2023-04-24T09:43:53;27;26;
60816;PMS5003;51921;51.518;-3.188;2023-04-24T09:46:18;22;21;
60816;PMS5003;51921;51.518;-3.188;2023-04-24T09:48:43;21;20;
60816;PMS5003;51921;51.518;-3.188;2023-04-24T09:51:07;20;18;
60816;PMS5003;51921;51.518;-3.188;2023-04-24T09:53:33;16;15;
60816;PMS5003;51921;51.518;-3.188;2023-04-24T09:56:01;19;19;
60816;PMS5003;51921;51.518;-3.188;2023-04-24T09:58:24;13;13;
60816;PMS5003;51921;51.518;-3.188;2023-04-24T10:00:48;19;18;
60816;PMS5003;51921;51.518;-3.188;2023-04-24T10:03:14;18;18;
60816;PMS5003;51921;51.518;-3.188;2023-04-24T10:05:39;14;14;
60816;PMS5003;51921;51.518;-3.188;2023-04-24T10:08:06;17;17;
60816;PMS5003;51921;51.518;-3.188;2023-04-24T10:10:31;17;15;
60816;PMS5003;51921;51.518;-3.188;2023-04-24T10:12:56;17;17;
60816;PMS5003;51921;51.518;-3.188;2023-04-24T10:15:22;21;18;
60816;PMS5003;51921;51.518;-3.188;2023-04-24T10:17:47;16;15;
60816;PMS5003;51921;51.518;-3.188;2023-04-24T10:20:13;16;16;
60816;PMS5003;51921;51.518;-3.188;2023-04-24T10:22:38;17;17;
60816;PMS5003;51921;51.518;-3.188;2023-04-24T10:25:04;33;31;
60816;PMS5003;51921;51.518;-3.188;2023-04-24T10:27:30;15;14;
60816;PMS5003;51921;51.518;-3.188;2023-04-24T10:29:55;13;12;
60816;PMS5003;51921;51.518;-3.188;2023-04-24T10:32:21;13;12;
60816;PMS5003;51921;51.518;-3.188;2023-04-24T10:34:46;13;13;
60816;PMS5003;51921;51.518;-3.188;2023-04-24T10:37:12;18;17;
60816;PMS5003;51921;51.518;-3.188;2023-04-24T10:39:38;17;15;
60816;PMS5003;51921;51.518;-3.188;2023-04-24T10:46:54;19;18;
60816;PMS5003;51921;51.518;-3.188;2023-04-24T10:51:46;13;12;
60816;PMS5003;51921;51.518;-3.188;2023-04-24T10:56:36;11;11;
60816;PMS5003;51921;51.518;-3.188;2023-04-24T10:59:02;12;12;
60816;PMS5003;51921;51.518;-3.188;2023-04-24T11:01:28;10;10;
60816;PMS5003;51921;51.518;-3.188;2023-04-24T11:03:54;15;15;
60816;PMS5003;51921;51.518;-3.188;2023-04-24T11:06:19;19;17;
60816;PMS5003;51921;51.518;-3.188;2023-04-24T11:08:45;16;14;
60816;PMS5003;51921;51.518;-3.188;2023-04-24T11:11:10;10;10;
60816;PMS5003;51921;51.518;-3.188;2023-04-24T11:18:26;9;9;
60816;PMS5003;51921;51.518;-3.188;2023-04-24T11:20:52;12;12;
60816;PMS5003;51921;51.518;-3.188;2023-04-24T11:23:17;15;14;
60816;PMS5003;51921;51.518;-3.188;2023-04-24T11:25:43;11;10;
60816;PMS5003;51921;51.518;-3.188;2023-04-24T11:28:08;7;7;
60816;PMS5003;51921;51.518;-3.188;2023-04-24T11:30:34;7;7;
60816;PMS5003;51921;51.518;-3.188;2023-04-24T11:33:01;11;11;
60816;PMS5003;51921;51.518;-3.188;2023-04-24T11:35:25;8;7;
60816;PMS5003;51921;51.518;-3.188;2023-04-24T11:37:51;7;7;
60816;PMS5003;51921;51.518;-3.188;2023-04-24T11:40:17;7;7;
60816;PMS5003;51921;51.518;-3.188;2023-04-24T11:42:42;7;5;
60816;PMS5003;51921;51.518;-3.188;2023-04-24T11:45:08;4;4;
60816;PMS5003;51921;51.518;-3.188;2023-04-24T11:47:33;7;7;
60816;PMS5003;51921;51.518;-3.188;2023-04-24T11:49:59;8;8;
60816;PMS5003;51921;51.518;-3.188;2023-04-24T11:52:24;9;9;
60816;PMS5003;51921;51.518;-3.188;2023-04-24T11:54:50;8;7;
60816;PMS5003;51921;51.518;-3.188;2023-04-24T11:57:15;6;6;
60816;PMS5003;51921;51.518;-3.188;2023-04-24T11:59:41;6;5;
60816;PMS5003;51921;51.518;-3.188;2023-04-24T12:02:06;5;5;
60816;PMS5003;51921;51.518;-3.188;2023-04-24T12:04:38;7;6;
60816;PMS5003;51921;51.518;-3.188;2023-04-24T12:06:59;3;3;
60816;PMS5003;51921;51.518;-3.188;2023-04-24T12:09:23;3;3;
60816;PMS5003;51921;51.518;-3.188;2023-04-24T12:11:53;4;4;
60816;PMS5003;51921;51.518;-3.188;2023-04-24T12:14:14;5;5;
60816;PMS5003;51921;51.518;-3.188;2023-04-24T12:16:40;3;3;
60816;PMS5003;51921;51.518;-3.188;2023-04-24T12:19:05;2;2;
60816;PMS5003;51921;51.518;-3.188;2023-04-24T12:21:31;1;1;
60816;PMS5003;51921;51.518;-3.188;2023-04-24T12:23:56;2;2;
60816;PMS5003;51921;51.518;-3.188;2023-04-24T12:26:22;2;2;
60816;PMS5003;51921;51.518;-3.188;2023-04-24T12:28:48;4;4;
60816;PMS5003;51921;51.518;-3.188;2023-04-24T12:31:13;4;4;
60816;PMS5003;51921;51.518;-3.188;2023-04-24T12:33:39;6;4;
60816;PMS5003;51921;51.518;-3.188;2023-04-24T12:36:04;5;4;
60816;PMS5003;51921;51.518;-3.188;2023-04-24T12:38:30;5;5;
60816;PMS5003;51921;51.518;-3.188;2023-04-24T12:41:02;3;3;
60816;PMS5003;51921;51.518;-3.188;2023-04-24T12:43:21;4;4;
60816;PMS5003;51921;51.518;-3.188;2023-04-24T12:45:47;4;4;
60816;PMS5003;51921;51.518;-3.188;2023-04-24T12:48:12;3;3;
60816;PMS5003;51921;51.518;-3.188;2023-04-24T12:50:38;4;4;
60816;PMS5003;51921;51.518;-3.188;2023-04-24T12:53:03;3;3;
60816;PMS5003;51921;51.518;-3.188;2023-04-24T12:55:29;4;3;
60816;PMS5003;51921;51.518;-3.188;2023-04-24T12:57:54;3;3;
60816;PMS5003;51921;51.518;-3.188;2023-04-24T13:00:20;3;3;
60816;PMS5003;51921;51.518;-3.188;2023-04-24T13:02:46;1;1;
60816;PMS5003;51921;51.518;-3.188;2023-04-24T13:05:11;2;2;
60816;PMS5003;51921;51.518;-3.188;2023-04-24T13:07:37;1;1;
60816;PMS5003;51921;51.518;-3.188;2023-04-24T13:10:02;2;2;
60816;PMS5003;51921;51.518;-3.188;2023-04-24T13:12:28;3;3;
60816;PMS5003;51921;51.518;-3.188;2023-04-24T13:14:53;2;2;
60816;PMS5003;51921;51.518;-3.188;2023-04-24T13:17:19;2;2;
60816;PMS5003;51921;51.518;-3.188;2023-04-24T13:19:44;0;0;
60816;PMS5003;51921;51.518;-3.188;2023-04-24T13:22:10;4;4;
60816;PMS5003;51921;51.518;-3.188;2023-04-24T13:24:36;4;3;
60816;PMS5003;51921;51.518;-3.188;2023-04-24T13:27:01;6;6;
60816;PMS5003;51921;51.518;-3.188;2023-04-24T13:29:27;7;7;
60816;PMS5003;51921;51.518;-3.188;2023-04-24T13:31:53;10;8;
60816;PMS5003;51921;51.518;-3.188;2023-04-24T13:34:18;9;8;
60816;PMS5003;51921;51.518;-3.188;2023-04-24T13:36:44;6;6;
60816;PMS5003;51921;51.518;-3.188;2023-04-24T13:39:09;7;7;
60816;PMS5003;51921;51.518;-3.188;2023-04-24T13:41:35;5;5;
60816;PMS5003;51921;51.518;-3.188;2023-04-24T13:44:00;9;9;
60816;PMS5003;51921;51.518;-3.188;2023-04-24T13:46:26;5;5;
60816;PMS5003;51921;51.518;-3.188;2023-04-24T13:48:52;7;6;
60816;PMS5003;51921;51.518;-3.188;2023-04-24T13:51:17;6;6;
60816;PMS5003;51921;51.518;-3.188;2023-04-24T13:53:43;5;5;
60816;PMS5003;51921;51.518;-3.188;2023-04-24T13:56:08;6;5;
60816;PMS5003;51921;51.518;-3.188;2023-04-24T13:58:39;6;5;
60816;PMS5003;51921;51.518;-3.188;2023-04-24T14:01:00;5;3;
60816;PMS5003;51921;51.518;-3.188;2023-04-24T14:03:25;4;4;
60816;PMS5003;51921;51.518;-3.188;2023-04-24T14:05:51;2;2;
60816;PMS5003;51921;51.518;-3.188;2023-04-24T14:08:16;3;3;
60816;PMS5003;51921;51.518;-3.188;2023-04-24T14:10:42;2;2;
60816;PMS5003;51921;51.518;-3.188;2023-04-24T14:13:08;2;2;
60816;PMS5003;51921;51.518;-3.188;2023-04-24T14:15:34;3;3;
60816;PMS5003;51921;51.518;-3.188;2023-04-24T14:17:59;3;3;
60816;PMS5003;51921;51.518;-3.188;2023-04-24T14:20:24;2;2;
60816;PMS5003;51921;51.518;-3.188;2023-04-24T14:22:50;5;5;
60816;PMS5003;51921;51.518;-3.188;2023-04-24T14:25:16;3;3;
60816;PMS5003;51921;51.518;-3.188;2023-04-24T14:27:41;4;4;
60816;PMS5003;51921;51.518;-3.188;2023-04-24T14:30:07;5;4;
60816;PMS5003;51921;51.518;-3.188;2023-04-24T14:32:32;3;3;
60816;PMS5003;51921;51.518;-3.188;2023-04-24T14:34:58;3;3;
60816;PMS5003;51921;51.518;-3.188;2023-04-24T14:37:24;2;2;
60816;PMS5003;51921;51.518;-3.188;2023-04-24T14:39:49;4;4;
60816;PMS5003;51921;51.518;-3.188;2023-04-24T14:42:15;6;5;
60816;PMS5003;51921;51.518;-3.188;2023-04-24T14:44:40;5;5;
60816;PMS5003;51921;51.518;-3.188;2023-04-24T14:47:06;7;6;
60816;PMS5003;51921;51.518;-3.188;2023-04-24T14:49:32;6;6;
60816;PMS5003;51921;51.518;-3.188;2023-04-24T14:51:57;7;6;
60816;PMS5003;51921;51.518;-3.188;2023-04-24T14:54:23;7;6;
60816;PMS5003;51921;51.518;-3.188;2023-04-24T14:56:48;5;5;
60816;PMS5003;51921;51.518;-3.188;2023-04-24T14:59:14;4;4;
60816;PMS5003;51921;51.518;-3.188;2023-04-24T15:01:39;3;3;
60816;PMS5003;51921;51.518;-3.188;2023-04-24T15:04:05;3;3;
60816;PMS5003;51921;51.518;-3.188;2023-04-24T15:06:31;4;4;
60816;PMS5003;51921;51.518;-3.188;2023-04-24T15:08:56;5;5;
60816;PMS5003;51921;51.518;-3.188;2023-04-24T15:11:22;4;4;
60816;PMS5003;51921;51.518;-3.188;2023-04-24T15:13:47;5;4;
60816;PMS5003;51921;51.518;-3.188;2023-04-24T15:16:13;4;4;
60816;PMS5003;51921;51.518;-3.188;2023-04-24T15:18:39;4;4;
60816;PMS5003;51921;51.518;-3.188;2023-04-24T15:21:04;5;5;
60816;PMS5003;51921;51.518;-3.188;2023-04-24T15:23:30;4;4;
60816;PMS5003;51921;51.518;-3.188;2023-04-24T15:25:55;3;2;
60816;PMS5003;51921;51.518;-3.188;2023-04-24T15:28:21;3;3;
60816;PMS5003;51921;51.518;-3.188;2023-04-24T15:30:47;3;3;
60816;PMS5003;51921;51.518;-3.188;2023-04-24T15:33:12;3;3;
60816;PMS5003;51921;51.518;-3.188;2023-04-24T15:35:38;3;3;
60816;PMS5003;51921;51.518;-3.188;2023-04-24T15:38:03;3;3;
60816;PMS5003;51921;51.518;-3.188;2023-04-24T15:40:29;4;4;
60816;PMS5003;51921;51.518;-3.188;2023-04-24T15:42:55;4;4;
60816;PMS5003;51921;51.518;-3.188;2023-04-24T15:45:20;4;4;
60816;PMS5003;51921;51.518;-3.188;2023-04-24T15:47:46;5;4;
60816;PMS5003;51921;51.518;-3.188;2023-04-24T15:50:12;4;3;
60816;PMS5003;51921;51.518;-3.188;2023-04-24T15:52:37;4;4;
60816;PMS5003;51921;51.518;-3.188;2023-04-24T15:55:03;3;3;
60816;PMS5003;51921;51.518;-3.188;2023-04-24T15:57:28;3;3;
60816;PMS5003;51921;51.518;-3.188;2023-04-24T15:59:54;4;4;
60816;PMS5003;51921;51.518;-3.188;2023-04-24T16:02:19;3;3;
60816;PMS5003;51921;51.518;-3.188;2023-04-24T16:04:45;3;3;
60816;PMS5003;51921;51.518;-3.188;2023-04-24T16:07:10;3;3;
60816;PMS5003;51921;51.518;-3.188;2023-04-24T16:09:36;4;3;
60816;PMS5003;51921;51.518;-3.188;2023-04-24T16:12:02;5;4;
60816;PMS5003;51921;51.518;-3.188;2023-04-24T16:14:27;5;5;